Time;durP1;ratioP1;P1;durP2;ratioP2;P2;SDS_P1;SDS_P2;PMS_P1;PMS_P2;Temp;Humidity;BMP_temperature;BMP_pressure;BME280_temperature;BME280_humidity;BME280_pressure;Samples;Min_cycle;Max_cycle;Signal;HPM_P1;HPM_P2
2023/09/17 00:01:20;;;;;;;6.05;5.43;;;15.50;99.90;;;;;;5033862;28;20644;-86
2023/09/17 00:03:46;;;;;;;5.88;5.35;;;15.50;99.90;;;;;;5035987;28;20183;-86
2023/09/17 00:06:11;;;;;;;11.43;5.47;;;15.40;99.90;;;;;;5021289;28;20183;-86
2023/09/17 00:08:38;;;;;;;5.75;5.03;;;15.30;99.90;;;;;;5018343;28;20501;-85
2023/09/17 00:11:04;;;;;;;5.22;4.72;;;15.30;99.90;;;;;;5036089;28;20289;-86
2023/09/17 00:13:32;;;;;;;5.28;4.78;;;15.30;99.90;;;;;;5019149;28;20644;-86
2023/09/17 00:16:00;;;;;;;8.15;4.93;;;15.30;99.90;;;;;;5015837;28;20218;-87
2023/09/17 00:18:32;;;;;;;7.45;5.00;;;15.30;99.90;;;;;;5032658;28;20212;-86
2023/09/17 00:20:58;;;;;;;5.53;5.00;;;15.40;99.90;;;;;;5036852;28;20530;-87
2023/09/17 00:23:23;;;;;;;9.13;5.30;;;15.40;99.90;;;;;;5036283;28;20241;-86
2023/09/17 00:25:49;;;;;;;10.32;6.05;;;15.40;99.90;;;;;;5019967;28;20186;-87
2023/09/17 00:28:15;;;;;;;7.78;5.88;;;15.40;99.90;;;;;;5036460;28;20189;-87
2023/09/17 00:30:40;;;;;;;7.85;5.80;;;15.50;99.90;;;;;;5031771;28;20186;-87
2023/09/17 00:33:06;;;;;;;8.63;5.25;;;15.40;99.90;;;;;;5017885;28;20190;-86
2023/09/17 00:35:33;;;;;;;8.98;5.53;;;15.40;99.90;;;;;;5034374;28;20280;-86
2023/09/17 00:37:59;;;;;;;7.22;5.40;;;15.40;99.90;;;;;;5036203;28;20187;-86
2023/09/17 00:40:29;;;;;;;8.82;5.28;;;15.40;99.90;;;;;;5020705;28;20191;-87
2023/09/17 00:42:54;;;;;;;6.93;5.80;;;15.40;99.90;;;;;;5020697;28;20229;-86
2023/09/17 00:45:20;;;;;;;14.68;7.63;;;15.40;99.90;;;;;;5037540;28;20186;-87
2023/09/17 00:47:47;;;;;;;7.70;6.13;;;15.50;99.90;;;;;;5036192;28;20187;-87
2023/09/17 00:50:13;;;;;;;7.03;6.38;;;15.50;99.90;;;;;;5023614;28;20191;-86
2023/09/17 00:52:39;;;;;;;9.13;5.63;;;15.50;99.90;;;;;;5017177;28;20294;-87
2023/09/17 00:55:07;;;;;;;7.38;6.10;;;15.40;99.90;;;;;;5030428;28;20222;-88
2023/09/17 00:57:33;;;;;;;6.63;5.90;;;15.40;99.90;;;;;;5035788;28;20680;-87
2023/09/17 01:00:09;;;;;;;6.43;5.75;;;15.40;99.90;;;;;;5029874;28;20564;-87
2023/09/17 01:02:36;;;;;;;10.25;6.10;;;15.30;99.90;;;;;;5038025;28;20185;-86
2023/09/17 01:05:04;;;;;;;6.57;5.65;;;15.20;99.90;;;;;;5040925;28;20193;-86
2023/09/17 01:07:30;;;;;;;6.85;5.75;;;15.20;99.90;;;;;;5041135;28;20190;-87
2023/09/17 01:09:56;;;;;;;7.00;5.53;;;15.20;99.90;;;;;;5042006;28;20183;-87
2023/09/17 01:12:22;;;;;;;9.68;5.88;;;15.20;99.90;;;;;;5042588;28;20266;-87
2023/09/17 01:14:47;;;;;;;9.30;5.70;;;15.20;99.90;;;;;;5021965;28;20242;-86
2023/09/17 01:17:14;;;;;;;11.32;5.82;;;15.20;99.90;;;;;;5028042;28;20187;-87
2023/09/17 01:19:42;;;;;;;8.30;6.35;;;15.20;99.90;;;;;;5042908;28;20175;-87
2023/09/17 01:22:26;;;;;;;6.40;5.65;;;15.20;99.90;;;;;;5041514;28;20193;-87
2023/09/17 01:25:12;;;;;;;6.50;5.90;;;15.20;99.90;;;;;;5042190;28;20192;-86
2023/09/17 01:27:39;;;;;;;7.25;6.00;;;15.30;99.90;;;;;;5040874;28;20190;-87
2023/09/17 01:30:19;;;;;;;14.48;5.80;;;15.30;99.90;;;;;;5038957;28;20193;-88
2023/09/17 01:32:45;;;;;;;7.03;5.80;;;15.20;99.90;;;;;;5020932;28;20186;-87
2023/09/17 01:35:15;;;;;;;10.57;5.55;;;15.20;99.90;;;;;;5018348;28;20308;-87
2023/09/17 01:37:54;;;;;;;10.70;5.35;;;15.20;99.90;;;;;;5030512;28;20190;-87
2023/09/17 01:40:20;;;;;;;9.82;5.70;;;15.10;99.90;;;;;;5023166;28;20198;-87
2023/09/17 01:42:47;;;;;;;8.45;5.82;;;15.10;99.90;;;;;;5036688;28;20187;-87
2023/09/17 01:45:16;;;;;;;10.15;5.97;;;15.00;99.90;;;;;;5035664;28;20183;-87
2023/09/17 01:47:47;;;;;;;7.25;5.70;;;15.10;99.90;;;;;;5033593;28;20183;-87
2023/09/17 01:50:17;;;;;;;9.27;5.55;;;15.10;99.90;;;;;;5016036;28;20197;-87
2023/09/17 01:52:44;;;;;;;7.35;5.90;;;15.10;99.90;;;;;;5025871;28;20187;-87
2023/09/17 01:55:10;;;;;;;10.25;6.28;;;15.10;99.90;;;;;;5035536;28;20673;-87
2023/09/17 01:57:36;;;;;;;7.78;5.53;;;15.20;99.90;;;;;;5026679;28;20329;-87
2023/09/17 02:00:14;;;;;;;8.73;5.60;;;15.20;99.90;;;;;;5032177;28;20525;-87
2023/09/17 02:02:51;;;;;;;8.23;5.75;;;15.30;99.90;;;;;;5027395;28;20194;-87
2023/09/17 02:05:17;;;;;;;10.82;5.35;;;15.30;99.90;;;;;;5035045;28;20240;-86
2023/09/17 02:07:43;;;;;;;9.38;5.75;;;15.30;99.90;;;;;;5034881;28;20187;-87
2023/09/17 02:10:10;;;;;;;7.50;5.55;;;15.30;99.90;;;;;;5035347;28;20186;-87
2023/09/17 02:12:36;;;;;;;8.25;5.60;;;15.30;99.90;;;;;;5034164;28;20193;-87
2023/09/17 02:15:03;;;;;;;6.63;5.00;;;15.20;99.90;;;;;;5035047;28;20558;-87
2023/09/17 02:17:29;;;;;;;5.70;4.85;;;15.30;99.90;;;;;;5034915;28;20182;-87
2023/09/17 02:19:55;;;;;;;6.78;5.40;;;15.20;99.90;;;;;;5035002;28;20325;-87
2023/09/17 02:22:21;;;;;;;6.88;5.20;;;15.10;99.90;;;;;;5034975;28;20273;-87
2023/09/17 02:24:47;;;;;;;7.15;5.07;;;15.10;99.90;;;;;;5032097;28;20515;-87
2023/09/17 02:27:16;;;;;;;8.32;5.10;;;15.10;99.90;;;;;;5029080;28;20197;-87
2023/09/17 02:29:44;;;;;;;7.88;5.20;;;15.10;99.90;;;;;;5032100;28;20186;-88
2023/09/17 02:32:10;;;;;;;6.30;5.32;;;15.20;99.90;;;;;;5025025;28;20197;-87
2023/09/17 02:34:38;;;;;;;5.57;5.07;;;15.10;99.90;;;;;;5019627;28;20187;-86
2023/09/17 02:37:03;;;;;;;7.93;4.68;;;15.10;99.90;;;;;;5024514;28;20281;-89
2023/09/17 02:39:30;;;;;;;5.13;4.63;;;15.00;99.90;;;;;;5022958;28;20594;-89
2023/09/17 02:42:14;;;;;;;10.23;5.03;;;15.00;99.90;;;;;;5030038;28;20190;-89
2023/09/17 02:44:52;;;;;;;7.05;4.75;;;15.00;99.90;;;;;;5018135;28;20216;-89
2023/09/17 02:47:21;;;;;;;6.90;5.35;;;14.90;99.90;;;;;;5029938;28;20209;-89
2023/09/17 02:49:46;;;;;;;8.90;6.15;;;14.90;99.90;;;;;;5019926;28;20187;-89
2023/09/17 02:52:12;;;;;;;6.22;5.18;;;14.80;99.90;;;;;;5017291;28;20190;-89
2023/09/17 02:54:41;;;;;;;6.88;4.95;;;14.80;99.90;;;;;;5025761;28;20520;-89
2023/09/17 02:57:10;;;;;;;8.77;4.93;;;14.80;99.90;;;;;;5029899;28;20232;-88
2023/09/17 02:59:37;;;;;;;8.20;4.97;;;14.90;99.90;;;;;;5015129;28;20287;-89
2023/09/17 03:02:03;;;;;;;7.55;5.07;;;14.90;99.90;;;;;;5018869;28;20293;-89
2023/09/17 03:04:29;;;;;;;7.85;5.10;;;14.90;99.90;;;;;;5035699;28;20185;-89
2023/09/17 03:06:56;;;;;;;6.53;4.40;;;15.00;99.90;;;;;;5035329;28;20217;-89
2023/09/17 03:09:24;;;;;;;9.38;5.10;;;15.00;99.90;;;;;;5035278;28;20269;-89
2023/09/17 03:11:50;;;;;;;5.47;4.97;;;15.10;99.90;;;;;;5035413;28;20186;-89
2023/09/17 03:14:16;;;;;;;9.23;4.78;;;15.10;99.90;;;;;;5035758;28;20241;-89
2023/09/17 03:16:42;;;;;;;8.52;5.53;;;15.10;99.90;;;;;;5036259;28;20218;-89
2023/09/17 03:19:09;;;;;;;6.55;5.30;;;15.10;99.90;;;;;;5035290;28;20193;-89
2023/09/17 03:21:40;;;;;;;7.53;5.28;;;15.10;99.90;;;;;;5034400;28;20194;-89
2023/09/17 03:24:07;;;;;;;6.88;5.03;;;15.10;99.90;;;;;;5020608;28;20193;-89
2023/09/17 03:26:33;;;;;;;6.85;5.20;;;15.00;99.90;;;;;;5034731;28;20186;-88
2023/09/17 03:28:59;;;;;;;7.72;4.68;;;15.10;99.90;;;;;;5036091;28;20197;-88
2023/09/17 03:31:28;;;;;;;6.15;5.10;;;15.10;99.90;;;;;;5016135;28;20187;-88
2023/09/17 03:33:58;;;;;;;7.03;5.35;;;15.10;99.90;;;;;;5015252;28;20218;-88
2023/09/17 03:36:24;;;;;;;8.35;4.97;;;15.20;99.90;;;;;;5030962;28;20720;-88
2023/09/17 03:38:50;;;;;;;7.13;5.10;;;15.10;99.90;;;;;;5034824;28;20711;-88
2023/09/17 03:41:16;;;;;;;6.78;5.65;;;15.10;99.90;;;;;;5035484;28;20194;-89
2023/09/17 03:43:41;;;;;;;6.07;5.47;;;15.10;99.90;;;;;;5035512;28;20222;-89
2023/09/17 03:46:07;;;;;;;7.45;5.75;;;15.00;99.90;;;;;;5035158;28;20974;-90
2023/09/17 03:48:33;;;;;;;7.40;5.47;;;15.00;99.90;;;;;;5036707;28;20237;-89
2023/09/17 03:51:04;;;;;;;10.35;6.28;;;15.00;99.90;;;;;;5023788;28;20211;-89
2023/09/17 03:53:30;;;;;;;6.90;6.25;;;15.00;99.90;;;;;;5024610;28;20194;-89
2023/09/17 03:55:56;;;;;;;7.97;6.55;;;15.00;99.90;;;;;;5035363;28;20214;-89
2023/09/17 03:58:23;;;;;;;7.05;6.15;;;15.00;99.90;;;;;;5020744;28;20186;-89
2023/09/17 04:00:50;;;;;;;8.43;6.85;;;15.00;99.90;;;;;;5015319;28;20618;-89
2023/09/17 04:03:18;;;;;;;7.65;6.57;;;14.90;99.90;;;;;;5030609;28;20205;-89
2023/09/17 04:05:48;;;;;;;10.68;6.35;;;14.90;99.90;;;;;;5036698;28;20182;-89
2023/09/17 04:08:14;;;;;;;6.50;5.85;;;14.90;99.90;;;;;;5030779;28;20225;-89
2023/09/17 04:10:40;;;;;;;7.85;6.32;;;15.00;99.90;;;;;;5015800;28;20191;-89
2023/09/17 04:13:09;;;;;;;12.43;6.95;;;15.00;99.90;;;;;;5015646;28;20245;-90
2023/09/17 04:15:36;;;;;;;7.20;6.50;;;15.00;99.90;;;;;;5016238;28;20242;-89
2023/09/17 04:18:04;;;;;;;7.13;6.43;;;15.00;99.90;;;;;;5031167;28;20676;-89
2023/09/17 04:20:35;;;;;;;6.35;5.70;;;15.10;99.90;;;;;;5015372;28;20591;-88
2023/09/17 04:23:02;;;;;;;7.45;6.68;;;15.10;99.90;;;;;;5019841;28;20186;-89
2023/09/17 04:25:28;;;;;;;6.95;6.25;;;15.10;99.90;;;;;;5035716;28;20183;-88
2023/09/17 04:27:54;;;;;;;9.35;6.80;;;15.10;99.90;;;;;;5011969;28;20646;-89
2023/09/17 04:30:24;;;;;;;6.85;6.25;;;15.10;99.90;;;;;;5009920;28;20192;-90
2023/09/17 04:32:52;;;;;;;8.77;6.93;;;15.10;99.90;;;;;;5015437;28;20574;-89
2023/09/17 04:35:19;;;;;;;7.53;6.00;;;15.10;99.90;;;;;;5025114;28;20218;-89
2023/09/17 04:37:47;;;;;;;7.05;5.88;;;15.10;99.90;;;;;;5039699;28;20189;-88
2023/09/17 04:40:13;;;;;;;9.35;6.32;;;15.10;99.90;;;;;;5039736;28;20228;-89
2023/09/17 04:42:40;;;;;;;7.65;6.85;;;15.10;99.90;;;;;;5040326;28;20197;-89
2023/09/17 04:45:08;;;;;;;9.20;6.40;;;15.10;99.90;;;;;;5040243;28;20201;-89
2023/09/17 04:47:34;;;;;;;8.52;6.78;;;15.10;99.90;;;;;;5039271;28;20192;-88
2023/09/17 04:50:01;;;;;;;7.65;6.85;;;15.10;99.90;;;;;;5035084;28;20187;-89
2023/09/17 04:52:31;;;;;;;7.60;6.70;;;15.10;99.90;;;;;;5020088;28;20229;-89
2023/09/17 04:54:57;;;;;;;7.60;6.70;;;15.10;99.90;;;;;;5031756;28;20218;-89
2023/09/17 04:57:22;;;;;;;7.28;6.57;;;15.10;99.90;;;;;;5039679;28;20237;-89
2023/09/17 04:59:50;;;;;;;9.43;7.00;;;15.10;99.90;;;;;;5036788;28;20397;-89
2023/09/17 05:02:17;;;;;;;8.25;7.28;;;15.20;99.90;;;;;;5039669;28;20193;-88
2023/09/17 05:04:43;;;;;;;7.60;6.90;;;15.10;99.90;;;;;;5039863;28;20261;-89
2023/09/17 05:07:09;;;;;;;9.32;7.10;;;15.10;99.90;;;;;;5039553;28;20192;-88
2023/09/17 05:09:34;;;;;;;9.02;6.13;;;15.10;99.90;;;;;;5039662;28;20214;-88
2023/09/17 05:12:10;;;;;;;11.20;6.95;;;15.20;99.90;;;;;;5039908;28;20240;-89
2023/09/17 05:14:36;;;;;;;9.18;6.53;;;15.20;99.90;;;;;;5038842;28;20224;-88
2023/09/17 05:17:02;;;;;;;8.93;6.78;;;15.20;99.90;;;;;;5035926;28;20187;-87
2023/09/17 05:19:28;;;;;;;8.55;7.13;;;15.20;99.90;;;;;;5019590;28;20193;-89
2023/09/17 05:21:58;;;;;;;7.18;6.15;;;15.20;99.90;;;;;;5029234;28;20187;-89
2023/09/17 05:24:24;;;;;;;7.55;6.85;;;15.20;99.90;;;;;;5019649;28;20195;-89
2023/09/17 05:26:50;;;;;;;7.68;6.80;;;15.30;99.90;;;;;;5038832;28;20534;-90
2023/09/17 05:29:16;;;;;;;11.73;6.70;;;15.30;99.90;;;;;;5036414;28;20276;-89
2023/09/17 05:31:42;;;;;;;9.70;7.35;;;15.30;99.90;;;;;;5035154;28;20186;-89
2023/09/17 05:34:08;;;;;;;8.35;6.45;;;15.30;99.90;;;;;;5036703;28;20190;-89
2023/09/17 05:36:34;;;;;;;12.15;7.80;;;15.30;99.90;;;;;;5019198;28;20707;-89
2023/09/17 05:39:00;;;;;;;7.88;7.07;;;15.30;99.90;;;;;;5016410;28;20185;-89
2023/09/17 05:41:28;;;;;;;10.23;7.15;;;15.30;99.90;;;;;;5016502;28;20191;-89
2023/09/17 05:43:54;;;;;;;8.85;7.63;;;15.40;99.90;;;;;;5020906;28;20253;-89
2023/09/17 05:46:20;;;;;;;7.28;6.57;;;15.40;99.90;;;;;;5029362;28;20263;-88
2023/09/17 05:48:45;;;;;;;8.43;7.03;;;15.40;99.90;;;;;;5015485;28;20222;-89
2023/09/17 05:51:11;;;;;;;8.30;7.43;;;15.50;99.90;;;;;;5016281;28;20199;-89
2023/09/17 05:53:37;;;;;;;7.47;6.72;;;15.50;99.90;;;;;;5017922;28;20217;-89
2023/09/17 05:56:04;;;;;;;9.20;7.05;;;15.50;99.90;;;;;;5016058;28;20218;-89
2023/09/17 05:58:30;;;;;;;9.52;7.13;;;15.50;99.90;;;;;;5015556;28;20525;-88
2023/09/17 06:00:55;;;;;;;7.80;7.00;;;15.50;99.90;;;;;;5029011;28;20187;-89
2023/09/17 06:03:23;;;;;;;8.02;7.22;;;15.60;99.90;;;;;;5040915;28;20547;-89
2023/09/17 06:05:49;;;;;;;7.82;7.03;;;15.60;99.90;;;;;;5039302;28;20194;-87
2023/09/17 06:08:15;;;;;;;8.45;7.22;;;15.70;99.90;;;;;;5028853;28;20195;-88
2023/09/17 06:10:41;;;;;;;10.43;7.78;;;15.70;99.90;;;;;;5038673;28;20182;-88
2023/09/17 06:13:07;;;;;;;10.35;7.63;;;15.80;99.90;;;;;;5040298;28;20489;-88
2023/09/17 06:15:32;;;;;;;8.57;7.40;;;15.80;99.90;;;;;;5023838;28;20246;-88
2023/09/17 06:17:58;;;;;;;9.77;6.90;;;15.80;99.90;;;;;;5033933;28;20191;-88
2023/09/17 06:20:24;;;;;;;11.75;7.28;;;15.90;99.90;;;;;;5027443;28;20210;-89
2023/09/17 06:22:51;;;;;;;7.57;6.75;;;16.00;99.90;;;;;;5015507;28;20517;-88
2023/09/17 06:25:16;;;;;;;8.40;7.50;;;16.00;99.90;;;;;;5016333;28;20190;-88
2023/09/17 06:27:42;;;;;;;8.82;7.28;;;16.10;99.90;;;;;;5026285;28;20257;-88
2023/09/17 06:30:08;;;;;;;8.07;6.82;;;16.30;99.90;;;;;;5033507;28;20232;-89
2023/09/17 06:32:34;;;;;;;11.38;7.32;;;16.40;99.90;;;;;;5035052;28;20186;-88
2023/09/17 06:35:00;;;;;;;8.32;7.32;;;16.40;99.90;;;;;;5034444;28;20657;-88
2023/09/17 06:37:28;;;;;;;8.00;6.90;;;16.50;99.90;;;;;;5035700;28;20217;-88
2023/09/17 06:39:54;;;;;;;10.02;7.28;;;16.60;99.90;;;;;;5026465;28;20187;-88
2023/09/17 06:42:20;;;;;;;9.13;6.72;;;16.60;99.90;;;;;;5034166;28;20195;-87
2023/09/17 06:44:46;;;;;;;8.07;7.00;;;16.70;99.90;;;;;;5035136;28;20179;-88
2023/09/17 06:47:13;;;;;;;9.90;7.60;;;16.70;99.90;;;;;;5035241;28;20183;-87
2023/09/17 06:49:38;;;;;;;11.07;7.18;;;16.70;99.90;;;;;;5033799;28;20273;-88
2023/09/17 06:52:05;;;;;;;8.68;7.20;;;16.70;99.90;;;;;;5034580;28;20224;-89
2023/09/17 06:54:31;;;;;;;10.35;6.90;;;16.70;99.90;;;;;;5035651;28;20189;-87
2023/09/17 06:56:57;;;;;;;8.52;7.72;;;16.80;99.90;;;;;;5033750;28;20250;-89
2023/09/17 06:59:23;;;;;;;13.65;7.30;;;16.80;99.90;;;;;;5022005;28;20182;-88
2023/09/17 07:01:49;;;;;;;9.23;6.80;;;16.90;99.90;;;;;;5033096;28;20280;-88
2023/09/17 07:04:14;;;;;;;9.98;6.75;;;16.90;99.90;;;;;;5030166;28;20275;-87
2023/09/17 07:06:40;;;;;;;7.93;7.03;;;16.90;99.90;;;;;;5016847;28;20645;-88
2023/09/17 07:09:07;;;;;;;7.35;6.65;;;16.90;99.90;;;;;;5033916;28;20187;-89
2023/09/17 07:11:33;;;;;;;10.07;6.57;;;16.90;99.90;;;;;;5019130;28;20194;-87
2023/09/17 07:14:05;;;;;;;9.88;6.93;;;17.00;99.90;;;;;;5010296;28;20179;-87
2023/09/17 07:16:31;;;;;;;7.07;6.38;;;17.00;99.90;;;;;;5010622;28;20300;-87
2023/09/17 07:18:57;;;;;;;7.75;6.30;;;17.00;99.90;;;;;;5011266;28;20209;-87
2023/09/17 07:21:22;;;;;;;7.50;6.30;;;17.00;99.90;;;;;;5015762;28;20693;-89
2023/09/17 07:23:50;;;;;;;7.38;6.55;;;17.00;99.90;;;;;;5013539;28;20673;-88
2023/09/17 07:26:20;;;;;;;8.85;6.13;;;17.10;99.90;;;;;;5004429;28;20279;-88
2023/09/17 07:28:47;;;;;;;11.55;6.18;;;17.10;99.90;;;;;;5011505;28;20172;-87
2023/09/17 07:31:15;;;;;;;7.18;5.80;;;17.20;99.90;;;;;;5017451;28;20237;-88
2023/09/17 07:33:42;;;;;;;8.38;6.40;;;17.30;99.90;;;;;;5021117;28;20614;-88
2023/09/17 07:36:09;;;;;;;7.88;5.97;;;17.40;99.90;;;;;;5008763;28;20210;-85
2023/09/17 07:38:35;;;;;;;6.60;6.00;;;17.60;99.90;;;;;;5021370;28;20648;-88
2023/09/17 07:41:02;;;;;;;6.15;5.63;;;17.70;99.90;;;;;;5014949;28;20225;-87
2023/09/17 07:43:28;;;;;;;8.35;5.50;;;17.80;99.90;;;;;;5021213;28;20186;-87
2023/09/17 07:45:56;;;;;;;7.32;5.85;;;17.90;99.90;;;;;;5014638;28;20261;-87
2023/09/17 07:48:24;;;;;;;5.93;5.18;;;18.10;99.90;;;;;;5019301;28;20558;-87
2023/09/17 07:51:00;;;;;;;6.20;5.20;;;18.20;99.90;;;;;;5024116;28;20630;-87
2023/09/17 07:53:26;;;;;;;6.22;5.40;;;18.20;99.90;;;;;;5034095;28;20613;-86
2023/09/17 07:55:53;;;;;;;7.45;5.00;;;18.30;99.90;;;;;;5032375;28;20225;-86
2023/09/17 07:58:19;;;;;;;6.07;4.60;;;18.50;99.90;;;;;;5033473;28;20269;-88
2023/09/17 08:00:45;;;;;;;6.22;4.70;;;18.60;99.90;;;;;;5016258;28;20275;-86
2023/09/17 08:03:16;;;;;;;7.22;4.57;;;18.60;99.90;;;;;;5017535;28;20183;-86
2023/09/17 08:05:52;;;;;;;5.25;4.75;;;18.70;99.90;;;;;;5017683;28;20189;-86
2023/09/17 08:08:18;;;;;;;7.55;4.50;;;18.80;99.90;;;;;;5018950;28;20229;-86
2023/09/17 08:10:44;;;;;;;4.95;4.43;;;18.90;99.90;;;;;;5016054;28;20183;-87
2023/09/17 08:13:10;;;;;;;4.93;4.40;;;19.10;99.90;;;;;;5021610;28;20637;-86
2023/09/17 08:15:37;;;;;;;5.88;4.35;;;19.20;99.90;;;;;;5021599;28;20211;-88
2023/09/17 08:18:03;;;;;;;6.43;4.30;;;19.40;99.90;;;;;;5014155;28;20191;-86
2023/09/17 08:20:29;;;;;;;5.05;4.07;;;19.40;99.90;;;;;;5002695;28;20538;-89
2023/09/17 08:22:54;;;;;;;6.38;4.40;;;19.50;99.90;;;;;;5014218;28;20248;-88
2023/09/17 08:25:20;;;;;;;4.93;4.28;;;19.70;99.90;;;;;;5020557;28;20194;-87
2023/09/17 08:27:47;;;;;;;5.90;3.85;;;19.90;99.90;;;;;;5017950;28;20190;-88
2023/09/17 08:30:13;;;;;;;4.45;4.03;;;20.00;99.90;;;;;;5015450;28;20211;-86
2023/09/17 08:32:44;;;;;;;5.60;4.35;;;20.10;99.90;;;;;;5028874;28;20621;-89
2023/09/17 08:35:15;;;;;;;5.43;4.35;;;20.30;99.90;;;;;;5027329;28;20645;-86
2023/09/17 08:37:42;;;;;;;5.13;4.15;;;20.30;99.90;;;;;;5015950;28;20523;-86
2023/09/17 08:40:13;;;;;;;4.22;3.67;;;20.50;99.90;;;;;;5020251;28;20198;-90
2023/09/17 08:42:43;;;;;;;4.15;3.75;;;20.60;99.90;;;;;;5032973;28;20272;-89
2023/09/17 08:45:10;;;;;;;5.43;3.78;;;20.60;99.90;;;;;;5030895;28;20265;-88
2023/09/17 08:47:37;;;;;;;5.72;4.20;;;20.60;99.90;;;;;;5022776;28;20210;-88
2023/09/17 08:50:04;;;;;;;4.20;3.80;;;20.60;99.90;;;;;;5020983;28;20186;-87
2023/09/17 08:52:43;;;;;;;4.25;3.85;;;20.60;99.90;;;;;;5024101;28;20288;-89
2023/09/17 08:55:11;;;;;;;6.60;3.67;;;20.50;99.90;;;;;;5029081;28;20246;-89
2023/09/17 08:57:40;;;;;;;5.43;4.03;;;20.40;99.90;;;;;;5032569;28;20268;-87
2023/09/17 09:00:09;;;;;;;5.07;4.13;;;20.40;99.90;;;;;;5032847;28;20192;-88
2023/09/17 09:02:53;;;;;;;4.00;3.60;;;20.40;99.90;;;;;;5025911;28;20622;-86
2023/09/17 09:05:25;;;;;;;7.00;3.92;;;20.50;99.90;;;;;;5032708;28;20183;-88
2023/09/17 09:07:51;;;;;;;5.35;4.00;;;20.50;99.90;;;;;;5031605;28;20190;-89
2023/09/17 09:10:18;;;;;;;4.60;3.97;;;20.50;99.90;;;;;;5031470;28;20182;-88
2023/09/17 09:12:45;;;;;;;8.82;4.00;;;20.50;99.90;;;;;;5032262;28;20406;-87
2023/09/17 09:15:14;;;;;;;5.40;3.90;;;20.70;99.90;;;;;;5032201;28;20210;-87
2023/09/17 09:17:40;;;;;;;5.18;4.25;;;20.90;99.90;;;;;;5032222;28;20198;-88
2023/09/17 09:20:09;;;;;;;5.85;4.10;;;21.10;99.90;;;;;;5025263;28;20511;-86
2023/09/17 09:22:36;;;;;;;4.20;3.53;;;21.30;99.90;;;;;;5026642;28;20179;-87
2023/09/17 09:25:04;;;;;;;15.35;3.83;;;21.40;99.90;;;;;;5037498;28;20182;-86
2023/09/17 09:27:30;;;;;;;5.80;3.55;;;21.60;99.90;;;;;;5035428;28;20183;-86
2023/09/17 09:29:56;;;;;;;5.95;3.45;;;21.50;99.90;;;;;;5036081;28;20197;-86
2023/09/17 09:32:23;;;;;;;4.15;3.75;;;21.60;99.90;;;;;;5028960;28;20190;-87
2023/09/17 09:34:51;;;;;;;5.88;3.58;;;21.70;99.90;;;;;;5037085;28;21453;-91
2023/09/17 09:37:23;;;;;;;4.80;3.80;;;21.90;99.90;;;;;;5039295;28;20244;-89
2023/09/17 09:39:49;;;;;;;6.45;4.10;;;22.10;99.90;;;;;;5039139;28;20309;-87
2023/09/17 09:42:15;;;;;;;10.05;3.70;;;22.30;99.90;;;;;;5055502;28;20207;-90
2023/09/17 09:44:42;;;;;;;4.97;3.05;;;22.40;99.90;;;;;;5037945;28;20182;-87
2023/09/17 09:47:08;;;;;;;3.35;3.05;;;22.50;99.90;;;;;;5040231;28;20182;-86
2023/09/17 09:49:44;;;;;;;6.50;3.30;;;22.60;99.90;;;;;;5028668;28;20689;-86
2023/09/17 09:52:14;;;;;;;6.15;3.25;;;22.70;99.90;;;;;;5041456;28;20253;-87
2023/09/17 09:54:46;;;;;;;3.40;2.80;;;22.70;99.90;;;;;;5041320;28;20217;-88
2023/09/17 09:57:15;;;;;;;3.38;3.08;;;22.90;99.90;;;;;;5036950;28;20234;-86
2023/09/17 09:59:44;;;;;;;4.53;3.15;;;23.00;99.90;;;;;;5042858;28;20218;-87
2023/09/17 10:02:15;;;;;;;5.72;2.92;;;23.20;99.90;;;;;;5027255;28;20190;-85
2023/09/17 10:04:46;;;;;;;3.83;3.08;;;23.30;99.90;;;;;;5039818;28;20271;-92
2023/09/17 10:07:15;;;;;;;3.95;3.08;;;23.40;99.90;;;;;;5029908;28;20187;-85
2023/09/17 10:09:41;;;;;;;2.83;2.47;;;23.40;99.90;;;;;;5042437;28;20550;-86
2023/09/17 10:12:07;;;;;;;4.38;2.65;;;23.50;99.90;;;;;;5029807;28;20206;-88
2023/09/17 10:14:38;;;;;;;2.80;2.47;;;23.60;99.90;;;;;;5033989;28;20198;-87
2023/09/17 10:17:10;;;;;;;2.90;2.60;;;24.00;99.90;;;;;;5034510;28;20221;-94
2023/09/17 10:19:38;;;;;;;3.22;2.58;;;24.20;99.90;;;;;;5031345;28;20191;-85
2023/09/17 10:22:07;;;;;;;5.70;2.92;;;24.40;99.90;;;;;;5030182;28;20688;-86
2023/09/17 10:24:38;;;;;;;3.38;2.50;;;24.40;99.90;;;;;;5044139;28;20618;-85
2023/09/17 10:27:08;;;;;;;6.57;2.45;;;24.40;99.90;;;;;;5036667;28;20277;-86
2023/09/17 10:29:38;;;;;;;6.68;2.67;;;24.20;99.90;;;;;;5037471;28;20178;-87
2023/09/17 10:32:04;;;;;;;3.38;2.20;;;24.10;99.90;;;;;;5038443;28;20784;-86
2023/09/17 10:34:37;;;;;;;3.10;2.70;;;23.90;99.90;;;;;;5037573;28;20171;-84
2023/09/17 10:37:04;;;;;;;3.72;2.33;;;23.90;99.90;;;;;;5040754;28;20233;-85
2023/09/17 10:39:32;;;;;;;2.67;2.42;;;23.90;99.90;;;;;;5041230;28;20191;-87
2023/09/17 10:42:01;;;;;;;2.95;2.30;;;23.90;99.90;;;;;;5037189;28;20194;-85
2023/09/17 10:44:30;;;;;;;4.45;2.65;;;23.90;99.90;;;;;;5038108;28;20203;-86
2023/09/17 10:47:03;;;;;;;4.63;2.40;;;23.90;99.90;;;;;;5042522;28;20211;-89
2023/09/17 10:49:31;;;;;;;2.83;2.53;;;24.00;99.90;;;;;;5035013;28;20214;-89
2023/09/17 10:51:58;;;;;;;4.00;2.28;;;24.00;99.90;;;;;;5028987;28;20187;-87
2023/09/17 10:54:23;;;;;;;3.67;2.47;;;24.20;99.90;;;;;;5046017;28;20190;-86
2023/09/17 10:56:50;;;;;;;7.03;2.58;;;24.10;99.90;;;;;;5046442;28;20346;-88
2023/09/17 10:59:18;;;;;;;3.33;2.17;;;24.10;99.90;;;;;;5035764;28;20178;-86
2023/09/17 11:01:46;;;;;;;4.55;2.75;;;24.00;99.90;;;;;;5035926;28;20183;-84
2023/09/17 11:04:18;;;;;;;4.43;3.25;;;23.90;99.90;;;;;;5045627;28;20183;-86
2023/09/17 11:06:47;;;;;;;5.45;2.50;;;23.90;99.90;;;;;;5049438;28;20219;-86
2023/09/17 11:09:14;;;;;;;2.97;2.65;;;24.00;99.90;;;;;;5044082;28;20255;-86
2023/09/17 11:11:41;;;;;;;3.80;2.60;;;24.00;99.90;;;;;;5018429;28;20590;-86
2023/09/17 11:14:08;;;;;;;3.88;2.72;;;24.00;99.90;;;;;;5029515;28;20270;-88
2023/09/17 11:16:47;;;;;;;6.65;2.92;;;24.10;99.90;;;;;;5026022;28;20215;-88
2023/09/17 11:19:24;;;;;;;4.32;2.58;;;24.20;99.90;;;;;;5032407;28;20232;-91
2023/09/17 11:22:08;;;;;;;2.55;2.33;;;24.30;99.90;;;;;;5033758;28;20220;-94
2023/09/17 11:24:34;;;;;;;3.25;2.33;;;24.50;99.90;;;;;;5034292;28;20557;-86
2023/09/17 11:27:08;;;;;;;5.57;2.90;;;24.70;99.90;;;;;;5034693;28;20209;-84
2023/09/17 11:29:41;;;;;;;3.58;2.53;;;24.80;99.90;;;;;;5033376;28;20191;-87
2023/09/17 11:32:08;;;;;;;2.97;2.50;;;24.80;99.90;;;;;;5033188;28;20181;-86
2023/09/17 11:34:36;;;;;;;4.53;2.33;;;24.80;99.90;;;;;;5026300;28;20184;-86
2023/09/17 11:37:06;;;;;;;2.63;2.40;;;24.70;99.90;;;;;;5032074;28;20214;-85
2023/09/17 11:39:34;;;;;;;2.88;2.67;;;24.60;99.90;;;;;;5032781;28;20178;-86
2023/09/17 11:42:05;;;;;;;11.35;10.00;;;24.50;99.90;;;;;;5033907;28;20609;-84
2023/09/17 11:44:34;;;;;;;7.03;6.35;;;24.50;99.90;;;;;;5032438;28;20190;-84
2023/09/17 11:47:01;;;;;;;4.93;2.60;;;24.40;99.90;;;;;;5032428;28;20564;-87
2023/09/17 11:49:28;;;;;;;4.07;2.47;;;24.40;99.90;;;;;;5029176;28;20186;-86
2023/09/17 11:51:57;;;;;;;2.92;2.35;;;24.40;99.90;;;;;;5015953;28;20208;-86
2023/09/17 11:54:28;;;;;;;3.72;2.10;;;24.40;99.90;;;;;;5032713;28;20277;-84
2023/09/17 11:56:55;;;;;;;2.40;2.20;;;24.40;99.90;;;;;;5015747;28;20233;-84
2023/09/17 11:59:22;;;;;;;4.30;2.30;;;24.50;99.90;;;;;;5032600;28;20182;-87
2023/09/17 12:01:52;;;;;;;3.40;2.20;;;24.50;99.90;;;;;;5032537;28;20217;-87
2023/09/17 12:04:20;;;;;;;4.15;2.40;;;24.50;99.90;;;;;;5032677;28;20182;-87
2023/09/17 12:06:50;;;;;;;5.03;2.33;;;24.40;99.90;;;;;;5033243;28;20246;-87
2023/09/17 12:12:05;;;;;;;3.78;2.50;;;24.40;99.90;;;;;;5034079;28;20225;-86
2023/09/17 12:14:32;;;;;;;6.10;2.33;;;24.40;99.90;;;;;;5032437;28;20553;-86
2023/09/17 12:16:58;;;;;;;3.53;2.47;;;24.50;99.90;;;;;;5032247;28;20214;-86
2023/09/17 12:19:24;;;;;;;2.40;2.20;;;24.50;99.90;;;;;;5029626;28;20531;-83
2023/09/17 12:21:53;;;;;;;2.88;2.53;;;24.70;99.90;;;;;;5031641;28;20190;-85
2023/09/17 12:24:25;;;;;;;3.38;2.75;;;24.80;99.90;;;;;;5032338;28;20182;-87
2023/09/17 12:29:34;;;;;;;2.63;2.42;;;25.00;99.90;;;;;;5033540;28;20523;-86
2023/09/17 12:32:01;;;;;;;3.83;2.58;;;25.00;99.90;;;;;;5032427;28;20194;-86
2023/09/17 12:34:27;;;;;;;3.80;2.47;;;25.00;99.90;;;;;;5032210;28;20221;-86
2023/09/17 12:36:53;;;;;;;3.05;2.50;;;25.00;99.90;;;;;;5032835;28;20214;-86
2023/09/17 12:39:19;;;;;;;2.92;2.30;;;25.10;99.90;;;;;;5032165;28;20240;-85
2023/09/17 12:41:45;;;;;;;4.05;2.60;;;25.30;99.90;;;;;;5032238;28;20194;-85
2023/09/17 12:44:12;;;;;;;2.90;2.60;;;25.40;99.90;;;;;;5032289;28;20277;-87
2023/09/17 12:46:39;;;;;;;3.10;2.70;;;25.50;99.90;;;;;;5033288;28;20632;-87
2023/09/17 12:49:06;;;;;;;3.75;2.78;;;25.60;99.90;;;;;;5031644;28;20196;-86
2023/09/17 12:51:32;;;;;;;5.03;2.63;;;25.60;99.90;;;;;;5028934;28;20197;-85
2023/09/17 12:53:59;;;;;;;3.42;2.70;;;25.60;99.90;;;;;;5032243;28;20186;-86